sensor_id;sensor_type;location;lat;lon;timestamp;pressure;altitude;pressure_sealevel;temperature;humidity
59787;BME280;45672;51.612;5.536;2024-03-07T00:02:12;102357.34;;;6.25;100.00
59787;BME280;45672;51.612;5.536;2024-03-07T00:04:38;102356.34;;;6.27;100.00
59787;BME280;45672;51.612;5.536;2024-03-07T00:07:03;102354.44;;;6.29;100.00
59787;BME280;45672;51.612;5.536;2024-03-07T00:09:31;102365.09;;;6.28;100.00
59787;BME280;45672;51.612;5.536;2024-03-07T00:11:57;102356.66;;;6.21;100.00
59787;BME280;45672;51.612;5.536;2024-03-07T00:14:22;102363.47;;;6.25;100.00
59787;BME280;45672;51.612;5.536;2024-03-07T00:16:52;102355.47;;;6.27;100.00
59787;BME280;45672;51.612;5.536;2024-03-07T00:19:17;102360.69;;;6.28;100.00
59787;BME280;45672;51.612;5.536;2024-03-07T00:21:43;102357.34;;;6.25;100.00
59787;BME280;45672;51.612;5.536;2024-03-07T00:24:08;102361.03;;;6.22;100.00
59787;BME280;45672;51.612;5.536;2024-03-07T00:26:33;102359.31;;;6.21;100.00
59787;BME280;45672;51.612;5.536;2024-03-07T00:28:59;102358.47;;;6.20;100.00
59787;BME280;45672;51.612;5.536;2024-03-07T00:31:24;102359.91;;;6.26;100.00
59787;BME280;45672;51.612;5.536;2024-03-07T00:33:49;102354.03;;;6.21;100.00
59787;BME280;45672;51.612;5.536;2024-03-07T00:36:14;102347.91;;;6.20;100.00
59787;BME280;45672;51.612;5.536;2024-03-07T00:38:40;102356.50;;;6.24;100.00
59787;BME280;45672;51.612;5.536;2024-03-07T00:41:07;102345.94;;;6.24;100.00
59787;BME280;45672;51.612;5.536;2024-03-07T00:43:32;102341.00;;;6.18;100.00
59787;BME280;45672;51.612;5.536;2024-03-07T00:45:57;102352.34;;;6.20;100.00
59787;BME280;45672;51.612;5.536;2024-03-07T00:48:23;102346.09;;;6.21;100.00
59787;BME280;45672;51.612;5.536;2024-03-07T00:50:50;102346.09;;;6.21;100.00
59787;BME280;45672;51.612;5.536;2024-03-07T00:53:16;102347.72;;;6.24;100.00
59787;BME280;45672;51.612;5.536;2024-03-07T00:55:41;102343.44;;;6.21;100.00
59787;BME280;45672;51.612;5.536;2024-03-07T00:58:06;102343.81;;;6.15;100.00
59787;BME280;45672;51.612;5.536;2024-03-07T01:00:31;102343.31;;;6.08;100.00
59787;BME280;45672;51.612;5.536;2024-03-07T01:02:57;102342.16;;;5.98;100.00
59787;BME280;45672;51.612;5.536;2024-03-07T01:05:22;102341.88;;;5.86;100.00
59787;BME280;45672;51.612;5.536;2024-03-07T01:07:47;102336.94;;;5.80;100.00
59787;BME280;45672;51.612;5.536;2024-03-07T01:10:14;102347.78;;;5.76;100.00
59787;BME280;45672;51.612;5.536;2024-03-07T01:12:40;102344.72;;;5.67;100.00
59787;BME280;45672;51.612;5.536;2024-03-07T01:15:05;102330.16;;;5.60;100.00
59787;BME280;45672;51.612;5.536;2024-03-07T01:17:32;102323.66;;;5.50;100.00
59787;BME280;45672;51.612;5.536;2024-03-07T01:19:57;102326.47;;;5.47;100.00
59787;BME280;45672;51.612;5.536;2024-03-07T01:22:23;102321.28;;;5.45;100.00
59787;BME280;45672;51.612;5.536;2024-03-07T01:24:49;102332.94;;;5.41;100.00
59787;BME280;45672;51.612;5.536;2024-03-07T01:27:15;102324.44;;;5.36;100.00
59787;BME280;45672;51.612;5.536;2024-03-07T01:29:41;102327.22;;;5.33;100.00
59787;BME280;45672;51.612;5.536;2024-03-07T01:32:06;102320.59;;;5.26;100.00
59787;BME280;45672;51.612;5.536;2024-03-07T01:34:32;102324.19;;;5.25;100.00
59787;BME280;45672;51.612;5.536;2024-03-07T01:36:57;102323.56;;;5.20;100.00
59787;BME280;45672;51.612;5.536;2024-03-07T01:39:22;102324.50;;;5.18;100.00
59787;BME280;45672;51.612;5.536;2024-03-07T01:41:48;102320.28;;;5.16;100.00
59787;BME280;45672;51.612;5.536;2024-03-07T01:44:14;102306.81;;;5.05;100.00
59787;BME280;45672;51.612;5.536;2024-03-07T01:46:39;102315.47;;;5.07;100.00
59787;BME280;45672;51.612;5.536;2024-03-07T01:49:07;102312.22;;;5.01;100.00
59787;BME280;45672;51.612;5.536;2024-03-07T01:51:33;102305.41;;;4.97;100.00
59787;BME280;45672;51.612;5.536;2024-03-07T01:53:59;102302.94;;;4.94;100.00
59787;BME280;45672;51.612;5.536;2024-03-07T01:56:25;102315.28;;;4.94;100.00
59787;BME280;45672;51.612;5.536;2024-03-07T01:58:52;102300.63;;;4.88;100.00
59787;BME280;45672;51.612;5.536;2024-03-07T02:01:18;102296.28;;;4.87;100.00
59787;BME280;45672;51.612;5.536;2024-03-07T02:03:43;102300.00;;;4.83;100.00
59787;BME280;45672;51.612;5.536;2024-03-07T02:06:09;102301.81;;;4.82;100.00
59787;BME280;45672;51.612;5.536;2024-03-07T02:08:35;102294.91;;;4.80;100.00
59787;BME280;45672;51.612;5.536;2024-03-07T02:11:00;102288.72;;;4.81;100.00
59787;BME280;45672;51.612;5.536;2024-03-07T02:13:26;102279.59;;;4.71;100.00
59787;BME280;45672;51.612;5.536;2024-03-07T02:15:52;102293.63;;;4.71;100.00
59787;BME280;45672;51.612;5.536;2024-03-07T02:18:19;102289.19;;;4.72;100.00
59787;BME280;45672;51.612;5.536;2024-03-07T02:20:45;102293.63;;;4.71;100.00
59787;BME280;45672;51.612;5.536;2024-03-07T02:23:13;102283.16;;;4.70;100.00
59787;BME280;45672;51.612;5.536;2024-03-07T02:25:39;102290.22;;;4.69;100.00
59787;BME280;45672;51.612;5.536;2024-03-07T02:28:05;102284.88;;;4.71;100.00
59787;BME280;45672;51.612;5.536;2024-03-07T02:30:30;102281.88;;;4.61;100.00
59787;BME280;45672;51.612;5.536;2024-03-07T02:32:57;102276.84;;;4.56;100.00
59787;BME280;45672;51.612;5.536;2024-03-07T02:35:24;102282.03;;;4.58;100.00
59787;BME280;45672;51.612;5.536;2024-03-07T02:37:50;102270.31;;;4.46;100.00
59787;BME280;45672;51.612;5.536;2024-03-07T02:40:16;102278.38;;;4.43;100.00
59787;BME280;45672;51.612;5.536;2024-03-07T02:42:41;102283.75;;;4.41;100.00
59787;BME280;45672;51.612;5.536;2024-03-07T02:45:07;102284.84;;;4.37;100.00
59787;BME280;45672;51.612;5.536;2024-03-07T02:47:33;102283.19;;;4.35;100.00
59787;BME280;45672;51.612;5.536;2024-03-07T02:49:58;102277.94;;;4.35;100.00
59787;BME280;45672;51.612;5.536;2024-03-07T02:52:24;102278.72;;;4.37;100.00
59787;BME280;45672;51.612;5.536;2024-03-07T02:54:49;102273.66;;;4.32;100.00
59787;BME280;45672;51.612;5.536;2024-03-07T02:57:14;102274.69;;;4.29;100.00
59787;BME280;45672;51.612;5.536;2024-03-07T02:59:41;102268.56;;;4.29;100.00
59787;BME280;45672;51.612;5.536;2024-03-07T03:02:07;102264.25;;;4.28;100.00
59787;BME280;45672;51.612;5.536;2024-03-07T03:04:32;102267.81;;;4.27;100.00
59787;BME280;45672;51.612;5.536;2024-03-07T03:06:58;102266.94;;;4.26;100.00
59787;BME280;45672;51.612;5.536;2024-03-07T03:09:23;102255.78;;;4.21;100.00
59787;BME280;45672;51.612;5.536;2024-03-07T03:11:49;102265.63;;;4.18;100.00
59787;BME280;45672;51.612;5.536;2024-03-07T03:14:14;102264.03;;;4.15;100.00
59787;BME280;45672;51.612;5.536;2024-03-07T03:16:43;102264.03;;;4.15;100.00
59787;BME280;45672;51.612;5.536;2024-03-07T03:19:09;102261.50;;;4.12;100.00
59787;BME280;45672;51.612;5.536;2024-03-07T03:21:35;102262.59;;;4.08;100.00
59787;BME280;45672;51.612;5.536;2024-03-07T03:24:00;102257.50;;;4.05;100.00
59787;BME280;45672;51.612;5.536;2024-03-07T03:26:27;102262.00;;;4.03;100.00
59787;BME280;45672;51.612;5.536;2024-03-07T03:28:52;102259.44;;;4.01;100.00
59787;BME280;45672;51.612;5.536;2024-03-07T03:31:18;102255.00;;;4.02;100.00
59787;BME280;45672;51.612;5.536;2024-03-07T03:33:45;102253.47;;;3.97;100.00
59787;BME280;45672;51.612;5.536;2024-03-07T03:36:10;102254.19;;;4.01;100.00
59787;BME280;45672;51.612;5.536;2024-03-07T03:38:36;102237.06;;;3.92;100.00
59787;BME280;45672;51.612;5.536;2024-03-07T03:41:01;102234.47;;;3.91;100.00
59787;BME280;45672;51.612;5.536;2024-03-07T03:43:26;102237.06;;;3.92;100.00
59787;BME280;45672;51.612;5.536;2024-03-07T03:45:52;102236.03;;;3.95;100.00
59787;BME280;45672;51.612;5.536;2024-03-07T03:48:17;102225.56;;;3.93;100.00
59787;BME280;45672;51.612;5.536;2024-03-07T03:50:43;102234.34;;;3.94;100.00
59787;BME280;45672;51.612;5.536;2024-03-07T03:53:08;102228.22;;;3.93;100.00
59787;BME280;45672;51.612;5.536;2024-03-07T03:55:33;102219.63;;;3.90;100.00
59787;BME280;45672;51.612;5.536;2024-03-07T03:57:59;102230.25;;;3.88;100.00
59787;BME280;45672;51.612;5.536;2024-03-07T04:00:25;102225.97;;;3.86;100.00
59787;BME280;45672;51.612;5.536;2024-03-07T04:02:50;102225.91;;;3.87;100.00
59787;BME280;45672;51.612;5.536;2024-03-07T04:05:18;102230.31;;;3.87;100.00
59787;BME280;45672;51.612;5.536;2024-03-07T04:07:44;102227.69;;;3.87;100.00
59787;BME280;45672;51.612;5.536;2024-03-07T04:10:10;102226.81;;;3.86;100.00
59787;BME280;45672;51.612;5.536;2024-03-07T04:12:38;102229.59;;;3.83;100.00
59787;BME280;45672;51.612;5.536;2024-03-07T04:15:06;102228.69;;;3.84;100.00
59787;BME280;45672;51.612;5.536;2024-03-07T04:17:35;102228.69;;;3.84;100.00
59787;BME280;45672;51.612;5.536;2024-03-07T04:20:02;102225.34;;;3.80;100.00
59787;BME280;45672;51.612;5.536;2024-03-07T04:22:31;102227.97;;;3.80;100.00
59787;BME280;45672;51.612;5.536;2024-03-07T04:24:56;102237.66;;;3.80;100.00
59787;BME280;45672;51.612;5.536;2024-03-07T04:27:21;102229.84;;;3.78;100.00
59787;BME280;45672;51.612;5.536;2024-03-07T04:29:51;102232.75;;;3.72;100.00
59787;BME280;45672;51.612;5.536;2024-03-07T04:32:17;102229.28;;;3.72;100.00
59787;BME280;45672;51.612;5.536;2024-03-07T04:34:45;102237.97;;;3.74;100.00
59787;BME280;45672;51.612;5.536;2024-03-07T04:37:10;102238.91;;;3.73;100.00
59787;BME280;45672;51.612;5.536;2024-03-07T04:39:36;102238.19;;;3.69;100.00
59787;BME280;45672;51.612;5.536;2024-03-07T04:42:02;102232.16;;;3.67;100.00
59787;BME280;45672;51.612;5.536;2024-03-07T04:44:29;102215.66;;;3.63;100.00
59787;BME280;45672;51.612;5.536;2024-03-07T04:46:54;102222.47;;;3.68;100.00
59787;BME280;45672;51.612;5.536;2024-03-07T04:49:23;102222.31;;;3.71;100.00
59787;BME280;45672;51.612;5.536;2024-03-07T04:51:50;102232.16;;;3.67;100.00
59787;BME280;45672;51.612;5.536;2024-03-07T04:54:16;102222.78;;;3.61;100.00
59787;BME280;45672;51.612;5.536;2024-03-07T04:56:41;102226.19;;;3.63;100.00
59787;BME280;45672;51.612;5.536;2024-03-07T04:59:06;102222.88;;;3.60;100.00
59787;BME280;45672;51.612;5.536;2024-03-07T05:01:32;102213.09;;;3.62;100.00
59787;BME280;45672;51.612;5.536;2024-03-07T05:03:57;102214.19;;;3.58;100.00
59787;BME280;45672;51.612;5.536;2024-03-07T05:06:22;102217.59;;;3.60;100.00
59787;BME280;45672;51.612;5.536;2024-03-07T05:08:47;102226.34;;;3.60;100.00
59787;BME280;45672;51.612;5.536;2024-03-07T05:11:13;102223.03;;;3.57;100.00
59787;BME280;45672;51.612;5.536;2024-03-07T05:13:41;102225.56;;;3.58;100.00
59787;BME280;45672;51.612;5.536;2024-03-07T05:16:07;102223.06;;;3.55;100.00
59787;BME280;45672;51.612;5.536;2024-03-07T05:18:33;102230.19;;;3.53;100.00
59787;BME280;45672;51.612;5.536;2024-03-07T05:20:58;102225.94;;;3.51;100.00
59787;BME280;45672;51.612;5.536;2024-03-07T05:23:43;102230.34;;;3.50;100.00
59787;BME280;45672;51.612;5.536;2024-03-07T05:26:08;102231.28;;;3.49;100.00
59787;BME280;45672;51.612;5.536;2024-03-07T05:28:35;102216.88;;;3.39;100.00
59787;BME280;45672;51.612;5.536;2024-03-07T05:31:01;102230.59;;;3.45;100.00
59787;BME280;45672;51.612;5.536;2024-03-07T05:33:29;102222.81;;;3.42;100.00
59787;BME280;45672;51.612;5.536;2024-03-07T05:35:54;102228.16;;;3.41;100.00
59787;BME280;45672;51.612;5.536;2024-03-07T05:38:27;102222.13;;;3.39;100.00
59787;BME280;45672;51.612;5.536;2024-03-07T05:40:53;102230.78;;;3.41;100.00
59787;BME280;45672;51.612;5.536;2024-03-07T05:43:19;102229.09;;;3.40;100.00
59787;BME280;45672;51.612;5.536;2024-03-07T05:45:44;102232.81;;;3.36;100.00
59787;BME280;45672;51.612;5.536;2024-03-07T05:48:14;102223.44;;;3.30;100.00
59787;BME280;45672;51.612;5.536;2024-03-07T05:50:41;102224.28;;;3.31;100.00
59787;BME280;45672;51.612;5.536;2024-03-07T05:53:06;102232.97;;;3.33;100.00
59787;BME280;45672;51.612;5.536;2024-03-07T05:55:33;102225.06;;;3.33;100.00
59787;BME280;45672;51.612;5.536;2024-03-07T05:57:58;102232.09;;;3.32;100.00
59787;BME280;45672;51.612;5.536;2024-03-07T06:00:23;102219.16;;;3.27;100.00
59787;BME280;45672;51.612;5.536;2024-03-07T06:02:52;102225.25;;;3.28;100.00
59787;BME280;45672;51.612;5.536;2024-03-07T06:05:18;102226.13;;;3.28;100.00
59787;BME280;45672;51.612;5.536;2024-03-07T06:07:44;102232.31;;;3.27;100.00
59787;BME280;45672;51.612;5.536;2024-03-07T06:10:12;102222.72;;;3.26;100.00
59787;BME280;45672;51.612;5.536;2024-03-07T06:12:38;102223.59;;;3.27;100.00
59787;BME280;45672;51.612;5.536;2024-03-07T06:15:10;102216.75;;;3.23;100.00
59787;BME280;45672;51.612;5.536;2024-03-07T06:17:36;102222.78;;;3.25;100.00
59787;BME280;45672;51.612;5.536;2024-03-07T06:20:01;102233.94;;;3.30;100.00
59787;BME280;45672;51.612;5.536;2024-03-07T06:22:26;102225.19;;;3.30;100.00
59787;BME280;45672;51.612;5.536;2024-03-07T06:24:52;102227.75;;;3.31;100.00
59787;BME280;45672;51.612;5.536;2024-03-07T06:27:17;102230.25;;;3.34;100.00
59787;BME280;45672;51.612;5.536;2024-03-07T06:29:51;102233.66;;;3.36;100.00
59787;BME280;45672;51.612;5.536;2024-03-07T06:32:17;102229.31;;;3.35;100.00
59787;BME280;45672;51.612;5.536;2024-03-07T06:34:43;102229.94;;;3.40;100.00
59787;BME280;45672;51.612;5.536;2024-03-07T06:37:08;102232.34;;;3.45;100.00
59787;BME280;45672;51.612;5.536;2024-03-07T06:39:33;102233.91;;;3.49;100.00
59787;BME280;45672;51.612;5.536;2024-03-07T06:41:59;102225.25;;;3.47;100.00
59787;BME280;45672;51.612;5.536;2024-03-07T06:44:24;102240.50;;;3.58;100.00
59787;BME280;45672;51.612;5.536;2024-03-07T06:46:50;102234.22;;;3.60;100.00
59787;BME280;45672;51.612;5.536;2024-03-07T06:49:15;102222.78;;;3.61;100.00
59787;BME280;45672;51.612;5.536;2024-03-07T06:51:41;102220.63;;;3.70;100.00
59787;BME280;45672;51.612;5.536;2024-03-07T06:54:06;102212.09;;;3.65;100.00
59787;BME280;45672;51.612;5.536;2024-03-07T06:56:31;102216.91;;;3.74;100.00
59787;BME280;45672;51.612;5.536;2024-03-07T06:58:57;102224.59;;;3.78;100.00
59787;BME280;45672;51.612;5.536;2024-03-07T07:01:23;102220.94;;;3.81;100.00
59787;BME280;45672;51.612;5.536;2024-03-07T07:03:49;102219.63;;;3.90;100.00
59787;BME280;45672;51.612;5.536;2024-03-07T07:06:14;102223.81;;;3.94;100.00
59787;BME280;45672;51.612;5.536;2024-03-07T07:08:40;102225.22;;;4.01;100.00
59787;BME280;45672;51.612;5.536;2024-03-07T07:11:05;102219.38;;;4.12;100.00
59787;BME280;45672;51.612;5.536;2024-03-07T07:13:31;102208.69;;;4.15;100.00
59787;BME280;45672;51.612;5.536;2024-03-07T07:15:56;102215.19;;;4.25;100.00
59787;BME280;45672;51.612;5.536;2024-03-07T07:18:22;102220.13;;;4.31;100.00
59787;BME280;45672;51.612;5.536;2024-03-07T07:20:49;102227.66;;;4.39;100.00
59787;BME280;45672;51.612;5.536;2024-03-07T07:23:16;102219.78;;;4.55;100.00
59787;BME280;45672;51.612;5.536;2024-03-07T07:25:42;102195.38;;;4.68;100.00
59787;BME280;45672;51.612;5.536;2024-03-07T07:28:07;102223.66;;;5.13;100.00
59787;BME280;45672;51.612;5.536;2024-03-07T07:30:33;102218.88;;;5.36;100.00
59787;BME280;45672;51.612;5.536;2024-03-07T07:32:58;102215.38;;;5.35;100.00
59787;BME280;45672;51.612;5.536;2024-03-07T07:35:24;102209.91;;;5.55;100.00
59787;BME280;45672;51.612;5.536;2024-03-07T07:37:51;102215.78;;;5.74;100.00
59787;BME280;45672;51.612;5.536;2024-03-07T07:40:20;102208.50;;;5.94;100.00
59787;BME280;45672;51.612;5.536;2024-03-07T07:42:48;102216.31;;;6.11;100.00
59787;BME280;45672;51.612;5.536;2024-03-07T07:45:15;102197.16;;;6.22;100.00
59787;BME280;45672;51.612;5.536;2024-03-07T07:47:42;102217.53;;;6.78;100.00
59787;BME280;45672;51.612;5.536;2024-03-07T07:50:12;102211.03;;;7.25;100.00
59787;BME280;45672;51.612;5.536;2024-03-07T07:55:13;102206.69;;;8.30;100.00
59787;BME280;45672;51.612;5.536;2024-03-07T07:57:47;102215.31;;;8.84;100.00
59787;BME280;45672;51.612;5.536;2024-03-07T08:00:15;102219.25;;;9.15;100.00
59787;BME280;45672;51.612;5.536;2024-03-07T08:03:08;102224.56;;;9.63;100.00
59787;BME280;45672;51.612;5.536;2024-03-07T08:05:35;102213.25;;;10.20;100.00
59787;BME280;45672;51.612;5.536;2024-03-07T08:08:06;102228.66;;;10.73;100.00
59787;BME280;45672;51.612;5.536;2024-03-07T08:10:33;102233.06;;;11.29;95.06
59787;BME280;45672;51.612;5.536;2024-03-07T08:13:00;102227.72;;;11.94;90.19
59787;BME280;45672;51.612;5.536;2024-03-07T08:15:27;102227.22;;;12.31;88.68
59787;BME280;45672;51.612;5.536;2024-03-07T08:17:53;102221.66;;;12.74;80.59
59787;BME280;45672;51.612;5.536;2024-03-07T08:20:20;102221.97;;;12.19;81.79
59787;BME280;45672;51.612;5.536;2024-03-07T08:22:46;102237.19;;;12.50;78.59
59787;BME280;45672;51.612;5.536;2024-03-07T08:25:15;102226.88;;;12.14;79.01
59787;BME280;45672;51.612;5.536;2024-03-07T08:27:42;102226.06;;;12.85;77.58
59787;BME280;45672;51.612;5.536;2024-03-07T08:30:09;102234.78;;;13.38;73.39
59787;BME280;45672;51.612;5.536;2024-03-07T08:32:45;102233.03;;;14.15;71.93
59787;BME280;45672;51.612;5.536;2024-03-07T08:35:11;102233.28;;;14.31;66.86
59787;BME280;45672;51.612;5.536;2024-03-07T08:37:40;102228.13;;;14.10;64.56
59787;BME280;45672;51.612;5.536;2024-03-07T08:40:06;102227.84;;;14.04;64.67
59787;BME280;45672;51.612;5.536;2024-03-07T08:42:36;102229.66;;;14.23;65.40
59787;BME280;45672;51.612;5.536;2024-03-07T08:45:03;102232.44;;;14.21;63.55
59787;BME280;45672;51.612;5.536;2024-03-07T08:47:32;102230.19;;;14.26;62.73
59787;BME280;45672;51.612;5.536;2024-03-07T08:49:58;102223.88;;;14.65;62.18
59787;BME280;45672;51.612;5.536;2024-03-07T08:52:24;102222.94;;;15.48;58.28
59787;BME280;45672;51.612;5.536;2024-03-07T08:54:50;102224.38;;;15.96;56.39
59787;BME280;45672;51.612;5.536;2024-03-07T08:57:15;102210.84;;;16.06;54.35
59787;BME280;45672;51.612;5.536;2024-03-07T08:59:43;102211.47;;;16.26;53.40
59787;BME280;45672;51.612;5.536;2024-03-07T09:02:09;102217.69;;;16.96;49.37
59787;BME280;45672;51.612;5.536;2024-03-07T09:04:35;102211.38;;;16.87;46.97
59787;BME280;45672;51.612;5.536;2024-03-07T09:07:01;102210.00;;;17.17;47.75
59787;BME280;45672;51.612;5.536;2024-03-07T09:09:26;102208.66;;;17.13;44.95
59787;BME280;45672;51.612;5.536;2024-03-07T09:11:52;102205.50;;;16.14;47.47
59787;BME280;45672;51.612;5.536;2024-03-07T09:14:17;102206.13;;;16.69;46.73
59787;BME280;45672;51.612;5.536;2024-03-07T09:16:42;102203.78;;;17.33;45.49
59787;BME280;45672;51.612;5.536;2024-03-07T09:19:08;102207.13;;;18.18;43.12
59787;BME280;45672;51.612;5.536;2024-03-07T09:21:39;102203.31;;;18.04;41.23
59787;BME280;45672;51.612;5.536;2024-03-07T09:24:05;102204.66;;;17.58;41.73
59787;BME280;45672;51.612;5.536;2024-03-07T09:26:32;102201.13;;;17.50;41.09
59787;BME280;45672;51.612;5.536;2024-03-07T09:28:57;102202.47;;;17.79;41.99
59787;BME280;45672;51.612;5.536;2024-03-07T09:31:23;102202.28;;;17.80;40.66
59787;BME280;45672;51.612;5.536;2024-03-07T09:33:48;102214.06;;;17.71;40.64
59787;BME280;45672;51.612;5.536;2024-03-07T09:36:14;102202.03;;;16.91;40.99
59787;BME280;45672;51.612;5.536;2024-03-07T09:38:40;102199.75;;;17.13;41.89
59787;BME280;45672;51.612;5.536;2024-03-07T09:41:06;102214.22;;;17.69;40.85
59787;BME280;45672;51.612;5.536;2024-03-07T09:43:33;102194.41;;;17.46;40.07
59787;BME280;45672;51.612;5.536;2024-03-07T09:45:59;102197.56;;;17.16;41.00
59787;BME280;45672;51.612;5.536;2024-03-07T09:48:26;102195.38;;;17.86;40.09
59787;BME280;45672;51.612;5.536;2024-03-07T09:50:55;102197.44;;;18.56;38.73
59787;BME280;45672;51.612;5.536;2024-03-07T09:53:24;102194.44;;;18.43;37.83
59787;BME280;45672;51.612;5.536;2024-03-07T09:55:52;102195.38;;;17.86;38.84
59787;BME280;45672;51.612;5.536;2024-03-07T09:58:18;102195.91;;;17.73;38.98
59787;BME280;45672;51.612;5.536;2024-03-07T10:00:45;102186.97;;;17.97;39.97
59787;BME280;45672;51.612;5.536;2024-03-07T10:03:12;102183.50;;;18.36;38.36
59787;BME280;45672;51.612;5.536;2024-03-07T10:05:39;102190.22;;;18.40;38.21
59787;BME280;45672;51.612;5.536;2024-03-07T10:08:06;102209.75;;;18.90;37.06
59787;BME280;45672;51.612;5.536;2024-03-07T10:10:32;102183.03;;;16.93;39.95
59787;BME280;45672;51.612;5.536;2024-03-07T10:12:58;102177.63;;;15.45;43.44
59787;BME280;45672;51.612;5.536;2024-03-07T10:15:30;102179.94;;;14.48;45.83
59787;BME280;45672;51.612;5.536;2024-03-07T10:17:56;102174.97;;;13.49;45.97
59787;BME280;45672;51.612;5.536;2024-03-07T10:20:22;102178.38;;;12.71;47.87
59787;BME280;45672;51.612;5.536;2024-03-07T10:22:48;102179.28;;;12.19;49.21
59787;BME280;45672;51.612;5.536;2024-03-07T10:25:17;102166.28;;;11.42;50.83
59787;BME280;45672;51.612;5.536;2024-03-07T10:27:43;102164.44;;;11.10;52.19
59787;BME280;45672;51.612;5.536;2024-03-07T10:30:09;102170.47;;;10.68;54.18
59787;BME280;45672;51.612;5.536;2024-03-07T10:32:35;102147.38;;;10.57;55.64
59787;BME280;45672;51.612;5.536;2024-03-07T10:35:06;102157.69;;;10.50;55.54
59787;BME280;45672;51.612;5.536;2024-03-07T10:37:34;102146.75;;;10.31;55.25
59787;BME280;45672;51.612;5.536;2024-03-07T10:40:00;102147.47;;;10.22;56.01
59787;BME280;45672;51.612;5.536;2024-03-07T10:42:29;102150.50;;;10.06;57.02
59787;BME280;45672;51.612;5.536;2024-03-07T10:45:00;102152.88;;;9.86;59.82
59787;BME280;45672;51.612;5.536;2024-03-07T10:47:28;102143.34;;;9.95;59.94
59787;BME280;45672;51.612;5.536;2024-03-07T10:53:08;102149.00;;;9.90;58.93
59787;BME280;45672;51.612;5.536;2024-03-07T10:55:53;102145.16;;;9.94;58.34
59787;BME280;45672;51.612;5.536;2024-03-07T11:01:10;102146.34;;;9.90;58.56
59787;BME280;45672;51.612;5.536;2024-03-07T11:03:39;102131.63;;;9.97;57.78
59787;BME280;45672;51.612;5.536;2024-03-07T11:06:06;102133.94;;;9.91;58.08
59787;BME280;45672;51.612;5.536;2024-03-07T11:08:37;102125.69;;;9.82;57.15
59787;BME280;45672;51.612;5.536;2024-03-07T11:11:03;102116.41;;;9.88;57.08
59787;BME280;45672;51.612;5.536;2024-03-07T11:13:30;102132.81;;;9.82;56.31
59787;BME280;45672;51.612;5.536;2024-03-07T11:15:56;102125.69;;;9.71;57.64
59787;BME280;45672;51.612;5.536;2024-03-07T11:18:25;102115.50;;;9.76;56.78
59787;BME280;45672;51.612;5.536;2024-03-07T11:20:51;102111.22;;;9.87;56.04
59787;BME280;45672;51.612;5.536;2024-03-07T11:23:27;102113.63;;;9.90;57.16
59787;BME280;45672;51.612;5.536;2024-03-07T11:26:08;102117.13;;;10.13;57.40
59787;BME280;45672;51.612;5.536;2024-03-07T11:28:35;102118.00;;;10.13;56.45
59787;BME280;45672;51.612;5.536;2024-03-07T11:31:25;102106.63;;;10.34;56.20
59787;BME280;45672;51.612;5.536;2024-03-07T11:34:15;102111.69;;;10.48;56.11
59787;BME280;45672;51.612;5.536;2024-03-07T11:36:41;102102.25;;;10.56;55.90
59787;BME280;45672;51.612;5.536;2024-03-07T11:39:46;102084.09;;;10.61;55.28
59787;BME280;45672;51.612;5.536;2024-03-07T11:42:29;102090.16;;;10.51;55.41
59787;BME280;45672;51.612;5.536;2024-03-07T11:44:57;102108.44;;;10.56;55.54
59787;BME280;45672;51.612;5.536;2024-03-07T11:47:34;102097.31;;;10.51;55.69
59787;BME280;45672;51.612;5.536;2024-03-07T11:50:00;102082.19;;;10.29;55.61
59787;BME280;45672;51.612;5.536;2024-03-07T11:52:27;102082.94;;;10.08;57.29
59787;BME280;45672;51.612;5.536;2024-03-07T11:54:53;102089.44;;;9.93;58.23
59787;BME280;45672;51.612;5.536;2024-03-07T11:57:18;102077.09;;;9.92;58.66
59787;BME280;45672;51.612;5.536;2024-03-07T11:59:45;102070.22;;;9.89;59.54
59787;BME280;45672;51.612;5.536;2024-03-07T12:02:12;102069.84;;;9.60;60.87
59787;BME280;45672;51.612;5.536;2024-03-07T12:04:40;102062.94;;;9.57;61.25
59787;BME280;45672;51.612;5.536;2024-03-07T12:07:05;102065.25;;;9.62;61.15
59787;BME280;45672;51.612;5.536;2024-03-07T12:09:32;102057.03;;;9.65;61.91
59787;BME280;45672;51.612;5.536;2024-03-07T12:12:01;102052.09;;;9.83;62.43
59787;BME280;45672;51.612;5.536;2024-03-07T12:14:27;102046.19;;;9.91;61.35
59787;BME280;45672;51.612;5.536;2024-03-07T12:16:53;102049.44;;;9.94;60.69
59787;BME280;45672;51.612;5.536;2024-03-07T12:19:18;102041.69;;;9.57;62.73
59787;BME280;45672;51.612;5.536;2024-03-07T12:21:46;102042.66;;;9.56;61.16
59787;BME280;45672;51.612;5.536;2024-03-07T12:24:14;102034.06;;;9.41;62.26
59787;BME280;45672;51.612;5.536;2024-03-07T12:26:40;102030.94;;;9.47;61.85
59787;BME280;45672;51.612;5.536;2024-03-07T12:29:09;102035.66;;;9.55;63.52
59787;BME280;45672;51.612;5.536;2024-03-07T12:31:41;102018.16;;;9.64;61.68
59787;BME280;45672;51.612;5.536;2024-03-07T12:34:07;102018.03;;;9.54;62.50
59787;BME280;45672;51.612;5.536;2024-03-07T12:36:35;102015.38;;;9.54;62.62
59787;BME280;45672;51.612;5.536;2024-03-07T12:39:21;102016.94;;;9.68;63.43
59787;BME280;45672;51.612;5.536;2024-03-07T12:41:50;102010.66;;;9.92;62.95
59787;BME280;45672;51.612;5.536;2024-03-07T12:44:18;102000.50;;;10.08;61.50
59787;BME280;45672;51.612;5.536;2024-03-07T12:46:48;101998.78;;;10.18;60.57
59787;BME280;45672;51.612;5.536;2024-03-07T12:49:16;101996.63;;;10.01;62.91
59787;BME280;45672;51.612;5.536;2024-03-07T12:51:42;101997.56;;;10.11;61.42
59787;BME280;45672;51.612;5.536;2024-03-07T12:54:08;101982.09;;;10.16;62.10
59787;BME280;45672;51.612;5.536;2024-03-07T12:56:37;101979.88;;;10.33;61.40
59787;BME280;45672;51.612;5.536;2024-03-07T12:59:05;101980.72;;;10.45;61.07